sensor_id;sensor_type;location;lat;lon;timestamp;temperature;humidity
59469;DHT22;45277;52.768;18.262;2023-07-13T00:01:23;16.80;99.90
59469;DHT22;45277;52.768;18.262;2023-07-13T00:02:55;16.90;99.90
59469;DHT22;45277;52.768;18.262;2023-07-13T00:04:26;16.90;99.90
59469;DHT22;45277;52.768;18.262;2023-07-13T00:05:59;17.00;99.90
59469;DHT22;45277;52.768;18.262;2023-07-13T00:07:31;16.90;99.90
59469;DHT22;45277;52.768;18.262;2023-07-13T00:09:02;16.90;99.90
59469;DHT22;45277;52.768;18.262;2023-07-13T00:10:33;16.80;99.90
59469;DHT22;45277;52.768;18.262;2023-07-13T00:12:19;16.80;99.90
59469;DHT22;45277;52.768;18.262;2023-07-13T00:13:52;16.70;99.90
59469;DHT22;45277;52.768;18.262;2023-07-13T00:15:26;16.70;99.90
59469;DHT22;45277;52.768;18.262;2023-07-13T00:16:58;16.60;99.90
59469;DHT22;45277;52.768;18.262;2023-07-13T00:18:31;16.50;99.90
59469;DHT22;45277;52.768;18.262;2023-07-13T00:20:03;16.50;99.90
59469;DHT22;45277;52.768;18.262;2023-07-13T00:21:35;16.50;99.90
59469;DHT22;45277;52.768;18.262;2023-07-13T00:23:06;16.50;99.90
59469;DHT22;45277;52.768;18.262;2023-07-13T00:24:38;16.50;99.90
59469;DHT22;45277;52.768;18.262;2023-07-13T00:26:13;16.50;99.90
59469;DHT22;45277;52.768;18.262;2023-07-13T00:27:44;16.50;99.90
59469;DHT22;45277;52.768;18.262;2023-07-13T00:29:15;16.40;99.90
59469;DHT22;45277;52.768;18.262;2023-07-13T00:30:47;16.40;99.90
59469;DHT22;45277;52.768;18.262;2023-07-13T00:32:19;16.40;99.90
59469;DHT22;45277;52.768;18.262;2023-07-13T00:33:50;16.30;99.90
59469;DHT22;45277;52.768;18.262;2023-07-13T00:35:22;16.30;99.90
59469;DHT22;45277;52.768;18.262;2023-07-13T00:36:54;16.20;99.90
59469;DHT22;45277;52.768;18.262;2023-07-13T00:38:25;16.20;99.90
59469;DHT22;45277;52.768;18.262;2023-07-13T00:39:57;16.10;99.90
59469;DHT22;45277;52.768;18.262;2023-07-13T00:41:28;16.00;99.90
59469;DHT22;45277;52.768;18.262;2023-07-13T00:42:59;16.00;99.90
59469;DHT22;45277;52.768;18.262;2023-07-13T00:44:31;16.00;99.90
59469;DHT22;45277;52.768;18.262;2023-07-13T00:46:21;16.10;99.90
59469;DHT22;45277;52.768;18.262;2023-07-13T00:47:54;16.00;99.90
59469;DHT22;45277;52.768;18.262;2023-07-13T00:49:29;16.10;99.90
59469;DHT22;45277;52.768;18.262;2023-07-13T00:51:02;16.10;99.90
59469;DHT22;45277;52.768;18.262;2023-07-13T00:52:36;16.00;99.90
59469;DHT22;45277;52.768;18.262;2023-07-13T00:54:13;16.00;99.90
59469;DHT22;45277;52.768;18.262;2023-07-13T00:55:46;16.00;99.90
59469;DHT22;45277;52.768;18.262;2023-07-13T00:57:20;16.00;99.90
59469;DHT22;45277;52.768;18.262;2023-07-13T00:58:53;16.00;99.90
59469;DHT22;45277;52.768;18.262;2023-07-13T01:00:25;16.10;99.90
59469;DHT22;45277;52.768;18.262;2023-07-13T01:01:57;16.10;99.90
59469;DHT22;45277;52.768;18.262;2023-07-13T01:03:29;16.20;99.90
59469;DHT22;45277;52.768;18.262;2023-07-13T01:05:00;16.30;99.90
59469;DHT22;45277;52.768;18.262;2023-07-13T01:06:32;16.30;99.90
59469;DHT22;45277;52.768;18.262;2023-07-13T01:08:04;16.30;99.90
59469;DHT22;45277;52.768;18.262;2023-07-13T01:09:36;16.50;99.90
59469;DHT22;45277;52.768;18.262;2023-07-13T01:11:07;16.50;99.90
59469;DHT22;45277;52.768;18.262;2023-07-13T01:12:39;16.50;99.90
59469;DHT22;45277;52.768;18.262;2023-07-13T01:14:11;16.50;99.90
59469;DHT22;45277;52.768;18.262;2023-07-13T01:15:45;16.50;99.90
59469;DHT22;45277;52.768;18.262;2023-07-13T01:17:17;16.60;99.90
59469;DHT22;45277;52.768;18.262;2023-07-13T01:18:48;16.60;99.90
59469;DHT22;45277;52.768;18.262;2023-07-13T01:20:19;16.60;99.90
59469;DHT22;45277;52.768;18.262;2023-07-13T01:21:52;16.70;99.90
59469;DHT22;45277;52.768;18.262;2023-07-13T01:23:24;16.70;99.90
59469;DHT22;45277;52.768;18.262;2023-07-13T01:24:56;16.60;99.90
59469;DHT22;45277;52.768;18.262;2023-07-13T01:26:28;16.70;99.90
59469;DHT22;45277;52.768;18.262;2023-07-13T01:27:59;16.80;99.90
59469;DHT22;45277;52.768;18.262;2023-07-13T01:29:31;16.90;99.90
59469;DHT22;45277;52.768;18.262;2023-07-13T01:31:04;16.90;99.90
59469;DHT22;45277;52.768;18.262;2023-07-13T01:32:37;16.90;99.90
59469;DHT22;45277;52.768;18.262;2023-07-13T01:34:12;16.80;99.90
59469;DHT22;45277;52.768;18.262;2023-07-13T01:35:45;16.90;99.90
59469;DHT22;45277;52.768;18.262;2023-07-13T01:37:17;16.90;99.90
59469;DHT22;45277;52.768;18.262;2023-07-13T01:38:48;16.80;99.90
59469;DHT22;45277;52.768;18.262;2023-07-13T01:40:20;16.80;99.90
59469;DHT22;45277;52.768;18.262;2023-07-13T01:41:51;16.70;99.90
59469;DHT22;45277;52.768;18.262;2023-07-13T01:43:23;16.70;99.90
59469;DHT22;45277;52.768;18.262;2023-07-13T01:44:54;16.70;99.90
59469;DHT22;45277;52.768;18.262;2023-07-13T01:46:25;16.60;99.90
59469;DHT22;45277;52.768;18.262;2023-07-13T01:47:57;16.50;99.90
59469;DHT22;45277;52.768;18.262;2023-07-13T01:49:29;16.50;99.90
59469;DHT22;45277;52.768;18.262;2023-07-13T01:51:00;16.50;99.90
59469;DHT22;45277;52.768;18.262;2023-07-13T01:52:31;16.50;99.90
59469;DHT22;45277;52.768;18.262;2023-07-13T01:54:03;16.60;99.90
59469;DHT22;45277;52.768;18.262;2023-07-13T01:55:35;16.60;99.90
59469;DHT22;45277;52.768;18.262;2023-07-13T01:57:06;16.60;99.90
59469;DHT22;45277;52.768;18.262;2023-07-13T01:58:38;16.60;99.90
59469;DHT22;45277;52.768;18.262;2023-07-13T02:00:10;16.60;99.90
59469;DHT22;45277;52.768;18.262;2023-07-13T02:01:42;16.70;99.90
59469;DHT22;45277;52.768;18.262;2023-07-13T02:03:13;16.90;99.90
59469;DHT22;45277;52.768;18.262;2023-07-13T02:04:48;16.90;99.90
59469;DHT22;45277;52.768;18.262;2023-07-13T02:06:20;17.00;99.90
59469;DHT22;45277;52.768;18.262;2023-07-13T02:07:51;17.00;99.90
59469;DHT22;45277;52.768;18.262;2023-07-13T02:09:23;17.10;99.90
59469;DHT22;45277;52.768;18.262;2023-07-13T02:10:55;17.10;99.90
59469;DHT22;45277;52.768;18.262;2023-07-13T02:12:26;17.10;99.90
59469;DHT22;45277;52.768;18.262;2023-07-13T02:14:01;17.10;99.90
59469;DHT22;45277;52.768;18.262;2023-07-13T02:15:38;17.20;99.90
59469;DHT22;45277;52.768;18.262;2023-07-13T02:17:11;17.20;99.90
59469;DHT22;45277;52.768;18.262;2023-07-13T02:18:43;17.10;99.90
59469;DHT22;45277;52.768;18.262;2023-07-13T02:20:14;17.00;99.90
59469;DHT22;45277;52.768;18.262;2023-07-13T02:21:45;17.00;99.90
59469;DHT22;45277;52.768;18.262;2023-07-13T02:23:17;17.00;99.90
59469;DHT22;45277;52.768;18.262;2023-07-13T02:24:49;17.00;99.90
59469;DHT22;45277;52.768;18.262;2023-07-13T02:26:20;17.10;99.90
59469;DHT22;45277;52.768;18.262;2023-07-13T02:27:52;17.10;99.90
59469;DHT22;45277;52.768;18.262;2023-07-13T02:29:23;17.10;99.90
59469;DHT22;45277;52.768;18.262;2023-07-13T02:30:55;17.10;99.90
59469;DHT22;45277;52.768;18.262;2023-07-13T02:32:26;17.10;99.90
59469;DHT22;45277;52.768;18.262;2023-07-13T02:33:57;17.20;99.90
59469;DHT22;45277;52.768;18.262;2023-07-13T02:35:29;17.20;99.90
59469;DHT22;45277;52.768;18.262;2023-07-13T02:37:00;17.30;99.90
59469;DHT22;45277;52.768;18.262;2023-07-13T02:38:35;17.20;99.90
59469;DHT22;45277;52.768;18.262;2023-07-13T02:40:08;17.30;99.90
59469;DHT22;45277;52.768;18.262;2023-07-13T02:41:39;17.30;99.90
59469;DHT22;45277;52.768;18.262;2023-07-13T02:43:12;17.30;99.90
59469;DHT22;45277;52.768;18.262;2023-07-13T02:44:44;17.30;99.90
59469;DHT22;45277;52.768;18.262;2023-07-13T02:46:15;17.30;99.90
59469;DHT22;45277;52.768;18.262;2023-07-13T02:47:46;17.30;99.90
59469;DHT22;45277;52.768;18.262;2023-07-13T02:49:18;17.40;99.90
59469;DHT22;45277;52.768;18.262;2023-07-13T02:50:49;17.30;99.90
59469;DHT22;45277;52.768;18.262;2023-07-13T02:52:20;17.20;99.90
59469;DHT22;45277;52.768;18.262;2023-07-13T02:53:52;17.30;99.90
59469;DHT22;45277;52.768;18.262;2023-07-13T02:55:23;17.30;99.90
59469;DHT22;45277;52.768;18.262;2023-07-13T02:56:54;17.20;99.90
59469;DHT22;45277;52.768;18.262;2023-07-13T02:58:26;17.20;99.90
59469;DHT22;45277;52.768;18.262;2023-07-13T02:59:57;17.10;99.90
59469;DHT22;45277;52.768;18.262;2023-07-13T03:01:29;17.00;99.90
59469;DHT22;45277;52.768;18.262;2023-07-13T03:03:01;17.10;99.90
59469;DHT22;45277;52.768;18.262;2023-07-13T03:04:32;17.10;99.90
59469;DHT22;45277;52.768;18.262;2023-07-13T03:06:04;17.10;99.90
59469;DHT22;45277;52.768;18.262;2023-07-13T03:07:39;17.20;99.90
59469;DHT22;45277;52.768;18.262;2023-07-13T03:09:10;17.20;99.90
59469;DHT22;45277;52.768;18.262;2023-07-13T03:10:43;17.20;99.90
59469;DHT22;45277;52.768;18.262;2023-07-13T03:12:15;17.30;99.90
59469;DHT22;45277;52.768;18.262;2023-07-13T03:13:46;17.20;99.90
59469;DHT22;45277;52.768;18.262;2023-07-13T03:15:17;17.20;99.90
59469;DHT22;45277;52.768;18.262;2023-07-13T03:16:49;17.30;99.90
59469;DHT22;45277;52.768;18.262;2023-07-13T03:18:21;17.40;99.90
59469;DHT22;45277;52.768;18.262;2023-07-13T03:19:52;17.40;99.90
59469;DHT22;45277;52.768;18.262;2023-07-13T03:21:24;17.40;99.90
59469;DHT22;45277;52.768;18.262;2023-07-13T03:22:55;17.50;99.90
59469;DHT22;45277;52.768;18.262;2023-07-13T03:24:26;17.50;99.90
59469;DHT22;45277;52.768;18.262;2023-07-13T03:27:37;17.70;99.90
59469;DHT22;45277;52.768;18.262;2023-07-13T03:29:08;17.70;99.90
59469;DHT22;45277;52.768;18.262;2023-07-13T03:30:40;17.80;99.90
59469;DHT22;45277;52.768;18.262;2023-07-13T03:32:12;17.80;99.90
59469;DHT22;45277;52.768;18.262;2023-07-13T03:33:44;17.80;99.90
59469;DHT22;45277;52.768;18.262;2023-07-13T03:35:15;17.80;99.90
59469;DHT22;45277;52.768;18.262;2023-07-13T03:36:47;17.80;99.90
59469;DHT22;45277;52.768;18.262;2023-07-13T03:38:18;17.80;99.90
59469;DHT22;45277;52.768;18.262;2023-07-13T03:39:50;17.80;99.90
59469;DHT22;45277;52.768;18.262;2023-07-13T03:41:22;17.90;99.90
59469;DHT22;45277;52.768;18.262;2023-07-13T03:42:53;18.10;99.90
59469;DHT22;45277;52.768;18.262;2023-07-13T03:44:25;18.10;99.90
59469;DHT22;45277;52.768;18.262;2023-07-13T03:45:56;18.10;99.90
59469;DHT22;45277;52.768;18.262;2023-07-13T03:47:28;18.10;99.90
59469;DHT22;45277;52.768;18.262;2023-07-13T03:48:59;18.20;99.90
59469;DHT22;45277;52.768;18.262;2023-07-13T03:50:31;18.20;99.90
59469;DHT22;45277;52.768;18.262;2023-07-13T03:52:02;18.20;99.90
59469;DHT22;45277;52.768;18.262;2023-07-13T03:53:38;18.30;99.90
59469;DHT22;45277;52.768;18.262;2023-07-13T03:55:10;18.20;99.90
59469;DHT22;45277;52.768;18.262;2023-07-13T03:56:41;18.20;99.90
59469;DHT22;45277;52.768;18.262;2023-07-13T03:58:37;18.30;99.90
59469;DHT22;45277;52.768;18.262;2023-07-13T04:00:09;18.30;99.90
59469;DHT22;45277;52.768;18.262;2023-07-13T04:01:43;18.40;99.90
59469;DHT22;45277;52.768;18.262;2023-07-13T04:03:14;18.40;99.90
59469;DHT22;45277;52.768;18.262;2023-07-13T04:04:46;18.40;99.90
59469;DHT22;45277;52.768;18.262;2023-07-13T04:06:29;18.40;99.90
59469;DHT22;45277;52.768;18.262;2023-07-13T04:08:00;18.40;99.90
59469;DHT22;45277;52.768;18.262;2023-07-13T04:09:32;18.40;99.90
59469;DHT22;45277;52.768;18.262;2023-07-13T04:11:04;18.40;99.90
59469;DHT22;45277;52.768;18.262;2023-07-13T04:12:36;18.40;99.90
59469;DHT22;45277;52.768;18.262;2023-07-13T04:14:07;18.40;99.90
59469;DHT22;45277;52.768;18.262;2023-07-13T04:15:39;18.50;99.90
59469;DHT22;45277;52.768;18.262;2023-07-13T04:17:11;18.50;99.90
59469;DHT22;45277;52.768;18.262;2023-07-13T04:18:43;18.60;99.90
59469;DHT22;45277;52.768;18.262;2023-07-13T04:20:14;18.60;99.90
59469;DHT22;45277;52.768;18.262;2023-07-13T04:21:46;18.60;99.90
59469;DHT22;45277;52.768;18.262;2023-07-13T04:23:18;18.60;99.90
59469;DHT22;45277;52.768;18.262;2023-07-13T04:24:49;18.60;99.90
59469;DHT22;45277;52.768;18.262;2023-07-13T04:26:20;18.50;99.90
59469;DHT22;45277;52.768;18.262;2023-07-13T04:27:53;18.50;99.90
59469;DHT22;45277;52.768;18.262;2023-07-13T04:29:25;18.60;99.90
59469;DHT22;45277;52.768;18.262;2023-07-13T04:30:56;18.60;99.90
59469;DHT22;45277;52.768;18.262;2023-07-13T04:32:27;18.60;99.90
59469;DHT22;45277;52.768;18.262;2023-07-13T04:33:59;18.60;99.90
59469;DHT22;45277;52.768;18.262;2023-07-13T04:35:30;18.70;99.90
59469;DHT22;45277;52.768;18.262;2023-07-13T04:37:02;18.60;99.90
59469;DHT22;45277;52.768;18.262;2023-07-13T04:38:36;18.70;99.90
59469;DHT22;45277;52.768;18.262;2023-07-13T04:40:08;18.80;99.90
59469;DHT22;45277;52.768;18.262;2023-07-13T04:41:42;18.90;99.90
59469;DHT22;45277;52.768;18.262;2023-07-13T04:43:14;19.00;99.90
59469;DHT22;45277;52.768;18.262;2023-07-13T04:44:49;19.10;99.90
59469;DHT22;45277;52.768;18.262;2023-07-13T04:46:20;19.10;99.90
59469;DHT22;45277;52.768;18.262;2023-07-13T04:47:52;19.10;99.90
59469;DHT22;45277;52.768;18.262;2023-07-13T04:49:24;19.10;99.90
59469;DHT22;45277;52.768;18.262;2023-07-13T04:50:56;19.10;99.90
59469;DHT22;45277;52.768;18.262;2023-07-13T04:52:28;19.00;99.90
59469;DHT22;45277;52.768;18.262;2023-07-13T04:53:59;19.10;99.90
59469;DHT22;45277;52.768;18.262;2023-07-13T04:55:31;19.20;99.90
59469;DHT22;45277;52.768;18.262;2023-07-13T04:57:03;19.30;99.90
59469;DHT22;45277;52.768;18.262;2023-07-13T04:58:35;19.40;99.90
59469;DHT22;45277;52.768;18.262;2023-07-13T05:00:07;19.50;99.90
59469;DHT22;45277;52.768;18.262;2023-07-13T05:01:39;19.70;99.90
59469;DHT22;45277;52.768;18.262;2023-07-13T05:03:12;19.70;99.90
59469;DHT22;45277;52.768;18.262;2023-07-13T05:04:46;19.80;99.90
59469;DHT22;45277;52.768;18.262;2023-07-13T05:06:18;19.90;99.90
59469;DHT22;45277;52.768;18.262;2023-07-13T05:07:50;19.90;99.90
59469;DHT22;45277;52.768;18.262;2023-07-13T05:09:21;20.00;99.90
59469;DHT22;45277;52.768;18.262;2023-07-13T05:10:53;20.00;99.90
59469;DHT22;45277;52.768;18.262;2023-07-13T05:12:25;20.00;99.90
59469;DHT22;45277;52.768;18.262;2023-07-13T05:13:56;20.00;99.90
59469;DHT22;45277;52.768;18.262;2023-07-13T05:15:27;20.10;99.90
59469;DHT22;45277;52.768;18.262;2023-07-13T05:16:59;20.20;99.90
59469;DHT22;45277;52.768;18.262;2023-07-13T05:18:30;20.30;99.90
59469;DHT22;45277;52.768;18.262;2023-07-13T05:20:03;20.50;99.90
59469;DHT22;45277;52.768;18.262;2023-07-13T05:21:34;20.60;99.90
59469;DHT22;45277;52.768;18.262;2023-07-13T05:23:06;20.70;99.90
59469;DHT22;45277;52.768;18.262;2023-07-13T05:24:37;20.70;99.90
59469;DHT22;45277;52.768;18.262;2023-07-13T05:26:09;20.70;99.90
59469;DHT22;45277;52.768;18.262;2023-07-13T05:27:41;20.80;99.90
59469;DHT22;45277;52.768;18.262;2023-07-13T05:29:12;20.80;99.90
59469;DHT22;45277;52.768;18.262;2023-07-13T05:30:47;21.00;99.90
59469;DHT22;45277;52.768;18.262;2023-07-13T05:32:19;21.10;99.90
59469;DHT22;45277;52.768;18.262;2023-07-13T05:33:51;21.20;99.90
59469;DHT22;45277;52.768;18.262;2023-07-13T05:35:22;21.20;99.90
59469;DHT22;45277;52.768;18.262;2023-07-13T05:36:53;21.00;99.90
59469;DHT22;45277;52.768;18.262;2023-07-13T05:38:25;20.80;99.90
59469;DHT22;45277;52.768;18.262;2023-07-13T05:39:56;20.90;99.90
59469;DHT22;45277;52.768;18.262;2023-07-13T05:41:28;20.70;99.90
59469;DHT22;45277;52.768;18.262;2023-07-13T05:42:59;20.50;99.90
59469;DHT22;45277;52.768;18.262;2023-07-13T05:44:31;20.40;99.90
59469;DHT22;45277;52.768;18.262;2023-07-13T05:46:02;20.40;99.90
59469;DHT22;45277;52.768;18.262;2023-07-13T05:47:34;20.40;99.90
59469;DHT22;45277;52.768;18.262;2023-07-13T05:49:06;20.40;99.90
59469;DHT22;45277;52.768;18.262;2023-07-13T05:50:37;20.30;99.90
59469;DHT22;45277;52.768;18.262;2023-07-13T05:52:08;20.20;99.90
59469;DHT22;45277;52.768;18.262;2023-07-13T05:53:40;20.20;99.90
59469;DHT22;45277;52.768;18.262;2023-07-13T05:55:12;20.10;99.90
59469;DHT22;45277;52.768;18.262;2023-07-13T05:56:43;20.10;99.90
59469;DHT22;45277;52.768;18.262;2023-07-13T05:58:15;20.00;99.90
59469;DHT22;45277;52.768;18.262;2023-07-13T05:59:47;20.00;99.90
59469;DHT22;45277;52.768;18.262;2023-07-13T06:01:18;20.00;99.90
59469;DHT22;45277;52.768;18.262;2023-07-13T06:02:52;19.90;99.90
59469;DHT22;45277;52.768;18.262;2023-07-13T06:04:23;20.00;99.90
59469;DHT22;45277;52.768;18.262;2023-07-13T06:05:54;19.90;99.90
59469;DHT22;45277;52.768;18.262;2023-07-13T06:07:26;20.00;99.90
59469;DHT22;45277;52.768;18.262;2023-07-13T06:08:57;19.90;99.90
59469;DHT22;45277;52.768;18.262;2023-07-13T06:10:28;19.90;99.90
59469;DHT22;45277;52.768;18.262;2023-07-13T06:12:00;19.90;99.90
59469;DHT22;45277;52.768;18.262;2023-07-13T06:13:31;20.00;99.90
59469;DHT22;45277;52.768;18.262;2023-07-13T06:15:03;20.20;99.90
59469;DHT22;45277;52.768;18.262;2023-07-13T06:16:35;20.20;99.90
59469;DHT22;45277;52.768;18.262;2023-07-13T06:18:07;20.20;99.90
59469;DHT22;45277;52.768;18.262;2023-07-13T06:19:38;20.20;99.90
59469;DHT22;45277;52.768;18.262;2023-07-13T06:21:13;20.10;99.90
59469;DHT22;45277;52.768;18.262;2023-07-13T06:22:44;20.20;99.90
59469;DHT22;45277;52.768;18.262;2023-07-13T06:24:15;20.30;99.90
59469;DHT22;45277;52.768;18.262;2023-07-13T06:25:47;20.30;99.90
59469;DHT22;45277;52.768;18.262;2023-07-13T06:27:18;20.40;99.90
59469;DHT22;45277;52.768;18.262;2023-07-13T06:28:50;20.30;99.90
59469;DHT22;45277;52.768;18.262;2023-07-13T06:30:21;20.20;99.90
59469;DHT22;45277;52.768;18.262;2023-07-13T06:31:53;20.20;99.90
59469;DHT22;45277;52.768;18.262;2023-07-13T06:33:24;20.30;99.90
59469;DHT22;45277;52.768;18.262;2023-07-13T06:34:56;20.40;99.90
59469;DHT22;45277;52.768;18.262;2023-07-13T06:36:28;20.50;99.90
59469;DHT22;45277;52.768;18.262;2023-07-13T06:38:00;20.50;99.90
59469;DHT22;45277;52.768;18.262;2023-07-13T06:39:32;20.60;99.90
59469;DHT22;45277;52.768;18.262;2023-07-13T06:41:05;20.60;99.90
59469;DHT22;45277;52.768;18.262;2023-07-13T06:42:37;20.60;99.90
59469;DHT22;45277;52.768;18.262;2023-07-13T06:44:10;20.60;99.90
59469;DHT22;45277;52.768;18.262;2023-07-13T06:45:46;20.60;99.90
59469;DHT22;45277;52.768;18.262;2023-07-13T06:47:19;20.50;99.90
59469;DHT22;45277;52.768;18.262;2023-07-13T06:48:51;20.50;99.90
59469;DHT22;45277;52.768;18.262;2023-07-13T06:50:22;20.60;99.90
59469;DHT22;45277;52.768;18.262;2023-07-13T06:51:54;20.70;99.90
59469;DHT22;45277;52.768;18.262;2023-07-13T06:53:26;20.70;99.90
59469;DHT22;45277;52.768;18.262;2023-07-13T06:54:57;20.80;99.90
59469;DHT22;45277;52.768;18.262;2023-07-13T06:56:29;20.90;99.90
59469;DHT22;45277;52.768;18.262;2023-07-13T06:58:01;21.00;99.90
59469;DHT22;45277;52.768;18.262;2023-07-13T06:59:32;21.00;99.90
59469;DHT22;45277;52.768;18.262;2023-07-13T07:01:04;21.10;99.90
59469;DHT22;45277;52.768;18.262;2023-07-13T07:02:37;21.30;99.90
59469;DHT22;45277;52.768;18.262;2023-07-13T07:04:08;21.30;99.90
59469;DHT22;45277;52.768;18.262;2023-07-13T07:05:40;21.20;99.90
59469;DHT22;45277;52.768;18.262;2023-07-13T07:07:11;21.20;99.90
59469;DHT22;45277;52.768;18.262;2023-07-13T07:08:43;21.30;99.90
59469;DHT22;45277;52.768;18.262;2023-07-13T07:10:14;21.40;99.90
59469;DHT22;45277;52.768;18.262;2023-07-13T07:11:48;21.40;99.90
59469;DHT22;45277;52.768;18.262;2023-07-13T07:13:20;21.40;99.90
59469;DHT22;45277;52.768;18.262;2023-07-13T07:14:53;21.50;99.90
59469;DHT22;45277;52.768;18.262;2023-07-13T07:16:24;21.60;99.90
59469;DHT22;45277;52.768;18.262;2023-07-13T07:17:56;21.70;99.90
59469;DHT22;45277;52.768;18.262;2023-07-13T07:19:31;21.80;99.90
59469;DHT22;45277;52.768;18.262;2023-07-13T07:21:03;21.70;99.90
59469;DHT22;45277;52.768;18.262;2023-07-13T07:22:35;21.80;99.90
59469;DHT22;45277;52.768;18.262;2023-07-13T07:24:06;22.00;99.90
59469;DHT22;45277;52.768;18.262;2023-07-13T07:25:38;22.10;99.90
59469;DHT22;45277;52.768;18.262;2023-07-13T07:27:13;22.30;99.90
59469;DHT22;45277;52.768;18.262;2023-07-13T07:28:46;22.40;99.90
59469;DHT22;45277;52.768;18.262;2023-07-13T07:30:18;22.50;99.90
59469;DHT22;45277;52.768;18.262;2023-07-13T07:31:50;22.50;99.90
59469;DHT22;45277;52.768;18.262;2023-07-13T07:33:21;22.40;99.90
59469;DHT22;45277;52.768;18.262;2023-07-13T07:34:53;22.40;99.90
59469;DHT22;45277;52.768;18.262;2023-07-13T07:36:24;22.30;99.90
59469;DHT22;45277;52.768;18.262;2023-07-13T07:37:55;22.20;99.90
59469;DHT22;45277;52.768;18.262;2023-07-13T07:39:27;22.20;99.90
59469;DHT22;45277;52.768;18.262;2023-07-13T07:41:02;22.30;99.90
59469;DHT22;45277;52.768;18.262;2023-07-13T07:42:34;22.30;99.90
59469;DHT22;45277;52.768;18.262;2023-07-13T07:44:06;22.40;99.90
59469;DHT22;45277;52.768;18.262;2023-07-13T07:45:40;22.50;99.90
59469;DHT22;45277;52.768;18.262;2023-07-13T07:47:12;22.70;99.90
59469;DHT22;45277;52.768;18.262;2023-07-13T07:48:43;22.70;99.90
59469;DHT22;45277;52.768;18.262;2023-07-13T07:50:14;22.80;99.90
59469;DHT22;45277;52.768;18.262;2023-07-13T07:51:46;22.80;99.90
59469;DHT22;45277;52.768;18.262;2023-07-13T07:53:18;22.60;99.90
59469;DHT22;45277;52.768;18.262;2023-07-13T07:54:49;22.60;99.90
59469;DHT22;45277;52.768;18.262;2023-07-13T07:56:21;22.70;99.90
59469;DHT22;45277;52.768;18.262;2023-07-13T07:57:53;22.80;99.90
59469;DHT22;45277;52.768;18.262;2023-07-13T07:59:24;22.80;99.90
59469;DHT22;45277;52.768;18.262;2023-07-13T08:01:06;22.90;99.90
59469;DHT22;45277;52.768;18.262;2023-07-13T08:02:38;23.00;99.90
59469;DHT22;45277;52.768;18.262;2023-07-13T08:04:12;23.10;99.90
59469;DHT22;45277;52.768;18.262;2023-07-13T08:05:44;23.20;99.90
59469;DHT22;45277;52.768;18.262;2023-07-13T08:07:16;23.10;99.90
59469;DHT22;45277;52.768;18.262;2023-07-13T08:08:47;23.20;99.90
59469;DHT22;45277;52.768;18.262;2023-07-13T08:10:19;23.10;99.90
59469;DHT22;45277;52.768;18.262;2023-07-13T08:11:51;23.30;99.90
59469;DHT22;45277;52.768;18.262;2023-07-13T08:13:23;23.40;93.90
59469;DHT22;45277;52.768;18.262;2023-07-13T08:14:54;23.10;99.90
59469;DHT22;45277;52.768;18.262;2023-07-13T08:16:29;23.00;99.90
59469;DHT22;45277;52.768;18.262;2023-07-13T08:18:01;22.80;99.90
59469;DHT22;45277;52.768;18.262;2023-07-13T08:19:34;22.80;99.90
59469;DHT22;45277;52.768;18.262;2023-07-13T08:21:07;22.80;99.90
59469;DHT22;45277;52.768;18.262;2023-07-13T08:22:39;22.90;99.90
59469;DHT22;45277;52.768;18.262;2023-07-13T08:24:11;22.80;99.90
59469;DHT22;45277;52.768;18.262;2023-07-13T08:25:49;22.90;99.90
59469;DHT22;45277;52.768;18.262;2023-07-13T08:27:22;23.20;99.90
59469;DHT22;45277;52.768;18.262;2023-07-13T08:28:54;23.60;94.60
59469;DHT22;45277;52.768;18.262;2023-07-13T08:30:25;23.90;78.10
59469;DHT22;45277;52.768;18.262;2023-07-13T08:31:58;24.20;70.50
59469;DHT22;45277;52.768;18.262;2023-07-13T08:33:29;24.50;62.10
59469;DHT22;45277;52.768;18.262;2023-07-13T08:35:01;24.40;67.40
59469;DHT22;45277;52.768;18.262;2023-07-13T08:36:32;24.50;75.30
59469;DHT22;45277;52.768;18.262;2023-07-13T08:38:04;25.00;50.60
59469;DHT22;45277;52.768;18.262;2023-07-13T08:39:36;25.40;32.20
59469;DHT22;45277;52.768;18.262;2023-07-13T08:41:16;25.60;22.10
59469;DHT22;45277;52.768;18.262;2023-07-13T08:42:58;25.80;18.40
59469;DHT22;45277;52.768;18.262;2023-07-13T08:46:40;26.20;1.00
59469;DHT22;45277;52.768;18.262;2023-07-13T08:49:51;25.90;16.90
59469;DHT22;45277;52.768;18.262;2023-07-13T08:51:28;25.90;17.90
59469;DHT22;45277;52.768;18.262;2023-07-13T08:53:02;25.90;14.10
59469;DHT22;45277;52.768;18.262;2023-07-13T08:54:38;25.80;16.50
59469;DHT22;45277;52.768;18.262;2023-07-13T08:56:16;25.80;17.90
59469;DHT22;45277;52.768;18.262;2023-07-13T08:58:05;25.60;19.60
59469;DHT22;45277;52.768;18.262;2023-07-13T08:59:41;25.30;40.40
59469;DHT22;45277;52.768;18.262;2023-07-13T09:01:19;25.40;23.30
59469;DHT22;45277;52.768;18.262;2023-07-13T09:02:58;25.40;21.20
59469;DHT22;45277;52.768;18.262;2023-07-13T09:04:41;25.90;5.90
59469;DHT22;45277;52.768;18.262;2023-07-13T09:06:14;26.20;1.00
59469;DHT22;45277;52.768;18.262;2023-07-13T09:15:07;26.80;1.00
59469;DHT22;45277;52.768;18.262;2023-07-13T09:16:46;26.90;1.00
59469;DHT22;45277;52.768;18.262;2023-07-13T09:18:27;26.90;1.00
59469;DHT22;45277;52.768;18.262;2023-07-13T09:20:04;26.90;1.00
59469;DHT22;45277;52.768;18.262;2023-07-13T09:21:40;26.80;1.00
59469;DHT22;45277;52.768;18.262;2023-07-13T09:23:15;27.10;1.00
59469;DHT22;45277;52.768;18.262;2023-07-13T09:25:00;27.10;1.00
59469;DHT22;45277;52.768;18.262;2023-07-13T09:26:32;27.30;1.00
59469;DHT22;45277;52.768;18.262;2023-07-13T09:31:42;26.90;1.00
59469;DHT22;45277;52.768;18.262;2023-07-13T09:33:14;26.80;1.00
59469;DHT22;45277;52.768;18.262;2023-07-13T09:34:53;26.90;1.00
59469;DHT22;45277;52.768;18.262;2023-07-13T09:36:31;26.70;1.00
59469;DHT22;45277;52.768;18.262;2023-07-13T09:39:43;27.00;1.00
59469;DHT22;45277;52.768;18.262;2023-07-13T09:41:35;27.30;1.00
59469;DHT22;45277;52.768;18.262;2023-07-13T09:43:13;27.30;1.00
59469;DHT22;45277;52.768;18.262;2023-07-13T09:46:21;27.80;1.00
59469;DHT22;45277;52.768;18.262;2023-07-13T09:48:20;28.30;1.00
59469;DHT22;45277;52.768;18.262;2023-07-13T09:49:55;29.00;1.00
59469;DHT22;45277;52.768;18.262;2023-07-13T09:51:27;28.90;1.00
59469;DHT22;45277;52.768;18.262;2023-07-13T09:53:01;28.80;1.00
59469;DHT22;45277;52.768;18.262;2023-07-13T09:54:36;28.90;1.00
59469;DHT22;45277;52.768;18.262;2023-07-13T09:56:20;29.10;1.00
59469;DHT22;45277;52.768;18.262;2023-07-13T09:57:51;28.70;1.00